sensor_id;sensor_type;location;lat;lon;timestamp;temperature;humidity
68248;SHT30;55064;49.636;12.164;2023-08-30T00:01:14;12.86;95.32
68248;SHT30;55064;49.636;12.164;2023-08-30T00:03:41;12.86;95.33
68248;SHT30;55064;49.636;12.164;2023-08-30T00:06:07;12.83;95.61
68248;SHT30;55064;49.636;12.164;2023-08-30T00:08:39;12.79;95.95
68248;SHT30;55064;49.636;12.164;2023-08-30T00:11:07;12.81;95.74
68248;SHT30;55064;49.636;12.164;2023-08-30T00:13:34;12.76;96.07
68248;SHT30;55064;49.636;12.164;2023-08-30T00:16:01;12.69;96.45
68248;SHT30;55064;49.636;12.164;2023-08-30T00:18:28;12.69;96.54
68248;SHT30;55064;49.636;12.164;2023-08-30T00:20:54;12.64;96.31
68248;SHT30;55064;49.636;12.164;2023-08-30T00:23:22;12.72;96.50
68248;SHT30;55064;49.636;12.164;2023-08-30T00:25:48;12.64;96.77
68248;SHT30;55064;49.636;12.164;2023-08-30T00:28:14;12.59;96.90
68248;SHT30;55064;49.636;12.164;2023-08-30T00:30:39;12.62;96.64
68248;SHT30;55064;49.636;12.164;2023-08-30T00:33:06;12.65;96.33
68248;SHT30;55064;49.636;12.164;2023-08-30T00:35:31;12.65;96.51
68248;SHT30;55064;49.636;12.164;2023-08-30T00:37:56;12.59;96.81
68248;SHT30;55064;49.636;12.164;2023-08-30T00:40:25;12.64;96.52
68248;SHT30;55064;49.636;12.164;2023-08-30T00:42:51;12.61;96.40
68248;SHT30;55064;49.636;12.164;2023-08-30T00:45:19;12.58;96.63
68248;SHT30;55064;49.636;12.164;2023-08-30T00:47:45;12.54;96.78
68248;SHT30;55064;49.636;12.164;2023-08-30T00:50:11;12.54;96.65
68248;SHT30;55064;49.636;12.164;2023-08-30T00:52:38;12.54;96.82
68248;SHT30;55064;49.636;12.164;2023-08-30T00:55:04;12.55;96.77
68248;SHT30;55064;49.636;12.164;2023-08-30T00:57:29;12.56;96.81
68248;SHT30;55064;49.636;12.164;2023-08-30T00:59:56;12.51;96.82
68248;SHT30;55064;49.636;12.164;2023-08-30T01:02:22;12.48;96.89
68248;SHT30;55064;49.636;12.164;2023-08-30T01:04:49;12.44;97.23
68248;SHT30;55064;49.636;12.164;2023-08-30T01:07:14;12.41;97.34
68248;SHT30;55064;49.636;12.164;2023-08-30T01:09:40;12.46;97.19
68248;SHT30;55064;49.636;12.164;2023-08-30T01:12:09;12.42;97.47
68248;SHT30;55064;49.636;12.164;2023-08-30T01:14:57;12.37;97.48
68248;SHT30;55064;49.636;12.164;2023-08-30T01:17:24;12.40;97.27
68248;SHT30;55064;49.636;12.164;2023-08-30T01:19:59;12.37;97.36
68248;SHT30;55064;49.636;12.164;2023-08-30T01:22:57;12.40;97.23
68248;SHT30;55064;49.636;12.164;2023-08-30T01:28:04;12.40;97.04
68248;SHT30;55064;49.636;12.164;2023-08-30T01:30:32;12.41;97.16
68248;SHT30;55064;49.636;12.164;2023-08-30T01:33:00;12.42;97.07
68248;SHT30;55064;49.636;12.164;2023-08-30T01:35:28;12.42;96.97
68248;SHT30;55064;49.636;12.164;2023-08-30T01:37:58;12.40;96.95
68248;SHT30;55064;49.636;12.164;2023-08-30T01:40:25;12.38;97.28
68248;SHT30;55064;49.636;12.164;2023-08-30T01:42:52;12.37;96.94
68248;SHT30;55064;49.636;12.164;2023-08-30T01:45:20;12.30;97.18
68248;SHT30;55064;49.636;12.164;2023-08-30T01:47:47;12.33;97.09
68248;SHT30;55064;49.636;12.164;2023-08-30T01:50:17;12.33;97.30
68248;SHT30;55064;49.636;12.164;2023-08-30T01:52:45;12.30;97.21
68248;SHT30;55064;49.636;12.164;2023-08-30T01:55:14;12.37;96.99
68248;SHT30;55064;49.636;12.164;2023-08-30T01:57:42;12.42;96.62
68248;SHT30;55064;49.636;12.164;2023-08-30T02:00:08;12.41;96.55
68248;SHT30;55064;49.636;12.164;2023-08-30T02:02:35;12.40;96.78
68248;SHT30;55064;49.636;12.164;2023-08-30T02:05:01;12.34;96.88
68248;SHT30;55064;49.636;12.164;2023-08-30T02:10:21;12.26;97.41
68248;SHT30;55064;49.636;12.164;2023-08-30T02:12:49;12.24;97.55
68248;SHT30;55064;49.636;12.164;2023-08-30T02:15:17;12.17;97.82
68248;SHT30;55064;49.636;12.164;2023-08-30T02:17:45;12.13;97.68
68248;SHT30;55064;49.636;12.164;2023-08-30T02:20:11;12.17;97.71
68248;SHT30;55064;49.636;12.164;2023-08-30T02:22:36;12.21;97.76
68248;SHT30;55064;49.636;12.164;2023-08-30T02:25:02;12.21;97.66
68248;SHT30;55064;49.636;12.164;2023-08-30T02:27:34;12.17;97.50
68248;SHT30;55064;49.636;12.164;2023-08-30T02:30:03;12.20;97.51
68248;SHT30;55064;49.636;12.164;2023-08-30T02:32:28;12.18;97.53
68248;SHT30;55064;49.636;12.164;2023-08-30T02:34:55;12.18;97.55
68248;SHT30;55064;49.636;12.164;2023-08-30T02:37:20;12.18;97.47
68248;SHT30;55064;49.636;12.164;2023-08-30T02:39:46;12.17;97.39
68248;SHT30;55064;49.636;12.164;2023-08-30T02:42:12;12.14;97.45
68248;SHT30;55064;49.636;12.164;2023-08-30T02:44:40;12.16;97.59
68248;SHT30;55064;49.636;12.164;2023-08-30T02:47:08;12.17;97.39
68248;SHT30;55064;49.636;12.164;2023-08-30T02:49:33;12.18;97.38
68248;SHT30;55064;49.636;12.164;2023-08-30T02:51:59;12.12;97.49
68248;SHT30;55064;49.636;12.164;2023-08-30T02:54:24;12.13;97.61
68248;SHT30;55064;49.636;12.164;2023-08-30T02:56:49;12.12;97.44
68248;SHT30;55064;49.636;12.164;2023-08-30T02:59:15;12.09;97.43
68248;SHT30;55064;49.636;12.164;2023-08-30T03:01:42;12.06;97.48
68248;SHT30;55064;49.636;12.164;2023-08-30T03:04:08;12.01;97.82
68248;SHT30;55064;49.636;12.164;2023-08-30T03:06:34;11.94;98.15
68248;SHT30;55064;49.636;12.164;2023-08-30T03:09:00;11.96;98.09
68248;SHT30;55064;49.636;12.164;2023-08-30T03:11:26;11.96;98.12
68248;SHT30;55064;49.636;12.164;2023-08-30T03:13:55;11.97;97.92
68248;SHT30;55064;49.636;12.164;2023-08-30T03:16:21;11.96;97.59
68248;SHT30;55064;49.636;12.164;2023-08-30T03:18:47;11.87;98.11
68248;SHT30;55064;49.636;12.164;2023-08-30T03:21:15;11.86;98.18
68248;SHT30;55064;49.636;12.164;2023-08-30T03:23:41;11.80;98.41
68248;SHT30;55064;49.636;12.164;2023-08-30T03:28:35;11.71;98.84
68248;SHT30;55064;49.636;12.164;2023-08-30T03:31:00;11.71;98.62
68248;SHT30;55064;49.636;12.164;2023-08-30T03:33:26;11.73;98.37
68248;SHT30;55064;49.636;12.164;2023-08-30T03:35:52;11.69;98.27
68248;SHT30;55064;49.636;12.164;2023-08-30T03:38:17;11.63;98.09
68248;SHT30;55064;49.636;12.164;2023-08-30T03:40:45;11.59;98.22
68248;SHT30;55064;49.636;12.164;2023-08-30T03:43:10;11.54;98.48
68248;SHT30;55064;49.636;12.164;2023-08-30T03:45:36;11.55;98.43
68248;SHT30;55064;49.636;12.164;2023-08-30T03:48:03;11.54;98.46
68248;SHT30;55064;49.636;12.164;2023-08-30T03:50:31;11.58;98.30
68248;SHT30;55064;49.636;12.164;2023-08-30T03:52:57;11.61;98.17
68248;SHT30;55064;49.636;12.164;2023-08-30T03:55:23;11.62;98.20
68248;SHT30;55064;49.636;12.164;2023-08-30T03:57:48;11.62;98.11
68248;SHT30;55064;49.636;12.164;2023-08-30T04:00:14;11.58;98.10
68248;SHT30;55064;49.636;12.164;2023-08-30T04:02:42;11.59;97.97
68248;SHT30;55064;49.636;12.164;2023-08-30T04:05:10;11.54;98.01
68248;SHT30;55064;49.636;12.164;2023-08-30T04:07:35;11.58;97.88
68248;SHT30;55064;49.636;12.164;2023-08-30T04:10:01;11.54;97.97
68248;SHT30;55064;49.636;12.164;2023-08-30T04:12:31;11.51;97.94
68248;SHT30;55064;49.636;12.164;2023-08-30T04:14:57;11.41;98.33
68248;SHT30;55064;49.636;12.164;2023-08-30T04:17:23;11.35;98.62
68248;SHT30;55064;49.636;12.164;2023-08-30T04:19:51;11.31;98.50
68248;SHT30;55064;49.636;12.164;2023-08-30T04:22:18;11.27;98.60
68248;SHT30;55064;49.636;12.164;2023-08-30T04:24:44;11.27;98.50
68248;SHT30;55064;49.636;12.164;2023-08-30T04:27:16;11.31;98.41
68248;SHT30;55064;49.636;12.164;2023-08-30T04:29:41;11.32;98.24
68248;SHT30;55064;49.636;12.164;2023-08-30T04:32:10;11.25;98.39
68248;SHT30;55064;49.636;12.164;2023-08-30T04:34:35;11.28;98.43
68248;SHT30;55064;49.636;12.164;2023-08-30T04:37:01;11.14;98.80
68248;SHT30;55064;49.636;12.164;2023-08-30T04:39:28;11.20;98.64
68248;SHT30;55064;49.636;12.164;2023-08-30T04:41:54;11.18;98.68
68248;SHT30;55064;49.636;12.164;2023-08-30T04:44:21;11.17;98.64
68248;SHT30;55064;49.636;12.164;2023-08-30T04:46:51;11.04;98.96
68248;SHT30;55064;49.636;12.164;2023-08-30T04:49:18;11.04;99.21
68248;SHT30;55064;49.636;12.164;2023-08-30T04:51:44;11.07;99.05
68248;SHT30;55064;49.636;12.164;2023-08-30T04:54:11;11.08;98.91
68248;SHT30;55064;49.636;12.164;2023-08-30T04:56:39;11.07;99.02
68248;SHT30;55064;49.636;12.164;2023-08-30T04:59:04;11.04;99.12
68248;SHT30;55064;49.636;12.164;2023-08-30T05:01:30;11.06;99.12
68248;SHT30;55064;49.636;12.164;2023-08-30T05:03:56;11.16;98.75
68248;SHT30;55064;49.636;12.164;2023-08-30T05:06:22;10.99;99.04
68248;SHT30;55064;49.636;12.164;2023-08-30T05:08:47;11.00;99.18
68248;SHT30;55064;49.636;12.164;2023-08-30T05:11:13;11.03;99.16
68248;SHT30;55064;49.636;12.164;2023-08-30T05:13:39;11.01;99.15
68248;SHT30;55064;49.636;12.164;2023-08-30T05:16:05;11.00;99.19
68248;SHT30;55064;49.636;12.164;2023-08-30T05:19:06;11.06;99.19
68248;SHT30;55064;49.636;12.164;2023-08-30T05:21:32;11.01;99.12
68248;SHT30;55064;49.636;12.164;2023-08-30T05:23:57;11.04;99.05
68248;SHT30;55064;49.636;12.164;2023-08-30T05:26:24;11.11;98.98
68248;SHT30;55064;49.636;12.164;2023-08-30T05:28:49;11.14;98.89
68248;SHT30;55064;49.636;12.164;2023-08-30T05:31:15;11.11;98.92
68248;SHT30;55064;49.636;12.164;2023-08-30T05:33:47;11.13;98.64
68248;SHT30;55064;49.636;12.164;2023-08-30T05:36:12;11.18;98.66
68248;SHT30;55064;49.636;12.164;2023-08-30T05:38:57;11.27;98.47
68248;SHT30;55064;49.636;12.164;2023-08-30T05:45:07;11.35;98.36
68248;SHT30;55064;49.636;12.164;2023-08-30T05:47:32;11.35;98.36
68248;SHT30;55064;49.636;12.164;2023-08-30T05:49:58;11.28;98.83
68248;SHT30;55064;49.636;12.164;2023-08-30T05:52:24;11.36;98.84
68248;SHT30;55064;49.636;12.164;2023-08-30T05:54:50;11.30;98.77
68248;SHT30;55064;49.636;12.164;2023-08-30T05:57:16;11.28;98.93
68248;SHT30;55064;49.636;12.164;2023-08-30T05:59:41;11.18;99.49
68248;SHT30;55064;49.636;12.164;2023-08-30T06:02:06;11.17;99.73
68248;SHT30;55064;49.636;12.164;2023-08-30T06:04:32;11.30;99.53
68248;SHT30;55064;49.636;12.164;2023-08-30T06:06:57;11.25;99.99
68248;SHT30;55064;49.636;12.164;2023-08-30T06:09:22;11.24;99.99
68248;SHT30;55064;49.636;12.164;2023-08-30T06:11:48;11.31;99.99
68248;SHT30;55064;49.636;12.164;2023-08-30T06:14:18;11.58;99.86
68248;SHT30;55064;49.636;12.164;2023-08-30T06:16:44;11.57;99.60
68248;SHT30;55064;49.636;12.164;2023-08-30T06:19:13;11.59;99.79
68248;SHT30;55064;49.636;12.164;2023-08-30T06:21:38;11.72;99.46
68248;SHT30;55064;49.636;12.164;2023-08-30T06:24:03;11.85;99.23
68248;SHT30;55064;49.636;12.164;2023-08-30T06:26:29;11.97;98.97
68248;SHT30;55064;49.636;12.164;2023-08-30T06:28:54;11.96;99.00
68248;SHT30;55064;49.636;12.164;2023-08-30T06:31:22;12.24;98.65
68248;SHT30;55064;49.636;12.164;2023-08-30T06:33:47;12.40;98.82
68248;SHT30;55064;49.636;12.164;2023-08-30T06:36:16;12.17;98.68
68248;SHT30;55064;49.636;12.164;2023-08-30T06:38:42;12.24;98.96
68248;SHT30;55064;49.636;12.164;2023-08-30T06:41:08;12.44;98.64
68248;SHT30;55064;49.636;12.164;2023-08-30T06:43:33;12.52;98.43
68248;SHT30;55064;49.636;12.164;2023-08-30T06:45:59;12.61;97.83
68248;SHT30;55064;49.636;12.164;2023-08-30T06:48:24;12.59;97.55
68248;SHT30;55064;49.636;12.164;2023-08-30T06:50:50;12.62;97.59
68248;SHT30;55064;49.636;12.164;2023-08-30T06:53:15;12.78;97.21
68248;SHT30;55064;49.636;12.164;2023-08-30T06:55:43;12.62;97.52
68248;SHT30;55064;49.636;12.164;2023-08-30T06:58:08;12.61;97.69
68248;SHT30;55064;49.636;12.164;2023-08-30T07:00:33;12.81;97.04
68248;SHT30;55064;49.636;12.164;2023-08-30T07:02:59;12.93;96.85
68248;SHT30;55064;49.636;12.164;2023-08-30T07:05:24;13.06;96.15
68248;SHT30;55064;49.636;12.164;2023-08-30T07:07:52;13.07;96.53
68248;SHT30;55064;49.636;12.164;2023-08-30T07:10:18;13.14;96.14
68248;SHT30;55064;49.636;12.164;2023-08-30T07:12:43;13.34;95.73
68248;SHT30;55064;49.636;12.164;2023-08-30T07:15:10;13.34;95.26
68248;SHT30;55064;49.636;12.164;2023-08-30T07:17:35;13.21;94.93
68248;SHT30;55064;49.636;12.164;2023-08-30T07:20:01;13.44;94.87
68248;SHT30;55064;49.636;12.164;2023-08-30T07:22:28;13.31;94.91
68248;SHT30;55064;49.636;12.164;2023-08-30T07:24:53;13.51;94.91
68248;SHT30;55064;49.636;12.164;2023-08-30T07:27:19;13.64;94.16
68248;SHT30;55064;49.636;12.164;2023-08-30T07:29:44;13.66;93.63
68248;SHT30;55064;49.636;12.164;2023-08-30T07:32:09;13.66;93.55
68248;SHT30;55064;49.636;12.164;2023-08-30T07:34:35;13.66;93.55
68248;SHT30;55064;49.636;12.164;2023-08-30T07:37:01;13.72;93.18
68248;SHT30;55064;49.636;12.164;2023-08-30T07:39:27;13.93;93.17
68248;SHT30;55064;49.636;12.164;2023-08-30T07:41:53;13.78;92.87
68248;SHT30;55064;49.636;12.164;2023-08-30T07:44:18;13.74;93.10
68248;SHT30;55064;49.636;12.164;2023-08-30T07:46:45;13.75;92.95
68248;SHT30;55064;49.636;12.164;2023-08-30T07:49:10;13.96;92.78
68248;SHT30;55064;49.636;12.164;2023-08-30T07:51:39;13.89;92.41
68248;SHT30;55064;49.636;12.164;2023-08-30T07:54:04;13.89;92.31
68248;SHT30;55064;49.636;12.164;2023-08-30T07:56:30;14.30;92.17
68248;SHT30;55064;49.636;12.164;2023-08-30T07:58:56;14.51;91.52
68248;SHT30;55064;49.636;12.164;2023-08-30T08:01:24;14.82;89.50
68248;SHT30;55064;49.636;12.164;2023-08-30T08:03:51;15.00;88.74
68248;SHT30;55064;49.636;12.164;2023-08-30T08:06:17;15.51;87.33
68248;SHT30;55064;49.636;12.164;2023-08-30T08:08:46;15.57;86.94
68248;SHT30;55064;49.636;12.164;2023-08-30T08:11:11;16.26;85.85
68248;SHT30;55064;49.636;12.164;2023-08-30T08:13:40;16.03;85.62
68248;SHT30;55064;49.636;12.164;2023-08-30T08:16:06;15.92;85.90
68248;SHT30;55064;49.636;12.164;2023-08-30T08:18:32;15.95;86.57
68248;SHT30;55064;49.636;12.164;2023-08-30T08:20:57;16.05;86.24
68248;SHT30;55064;49.636;12.164;2023-08-30T08:23:23;16.12;85.18
68248;SHT30;55064;49.636;12.164;2023-08-30T08:25:48;16.64;83.93
68248;SHT30;55064;49.636;12.164;2023-08-30T08:28:13;16.72;83.38
68248;SHT30;55064;49.636;12.164;2023-08-30T08:30:39;16.22;84.14
68248;SHT30;55064;49.636;12.164;2023-08-30T08:33:04;16.10;85.86
68248;SHT30;55064;49.636;12.164;2023-08-30T08:35:29;16.40;84.55
68248;SHT30;55064;49.636;12.164;2023-08-30T08:37:55;16.34;84.38
68248;SHT30;55064;49.636;12.164;2023-08-30T08:40:21;16.51;84.47
68248;SHT30;55064;49.636;12.164;2023-08-30T08:42:52;16.74;83.65
68248;SHT30;55064;49.636;12.164;2023-08-30T08:45:18;16.92;82.72
68248;SHT30;55064;49.636;12.164;2023-08-30T08:47:45;17.11;81.42
68248;SHT30;55064;49.636;12.164;2023-08-30T08:50:14;17.11;80.98
68248;SHT30;55064;49.636;12.164;2023-08-30T08:52:39;17.57;80.35
68248;SHT30;55064;49.636;12.164;2023-08-30T08:55:09;18.04;79.28
68248;SHT30;55064;49.636;12.164;2023-08-30T08:57:37;18.50;78.38
68248;SHT30;55064;49.636;12.164;2023-08-30T09:00:08;18.91;77.17
68248;SHT30;55064;49.636;12.164;2023-08-30T09:02:36;18.54;77.14
68248;SHT30;55064;49.636;12.164;2023-08-30T09:05:02;18.33;77.45
68248;SHT30;55064;49.636;12.164;2023-08-30T09:07:31;17.42;77.62
68248;SHT30;55064;49.636;12.164;2023-08-30T09:09:57;17.15;80.25
68248;SHT30;55064;49.636;12.164;2023-08-30T09:12:23;16.98;81.74
68248;SHT30;55064;49.636;12.164;2023-08-30T09:14:55;17.09;82.00
68248;SHT30;55064;49.636;12.164;2023-08-30T09:17:21;17.16;82.26
68248;SHT30;55064;49.636;12.164;2023-08-30T09:19:47;17.94;80.03
68248;SHT30;55064;49.636;12.164;2023-08-30T09:22:14;18.01;77.02
68248;SHT30;55064;49.636;12.164;2023-08-30T09:24:40;17.87;77.02
68248;SHT30;55064;49.636;12.164;2023-08-30T09:27:06;18.02;77.56
68248;SHT30;55064;49.636;12.164;2023-08-30T09:29:32;18.40;75.36
68248;SHT30;55064;49.636;12.164;2023-08-30T09:32:00;18.60;72.65
68248;SHT30;55064;49.636;12.164;2023-08-30T09:34:26;18.75;72.99
68248;SHT30;55064;49.636;12.164;2023-08-30T09:36:53;18.73;74.28
68248;SHT30;55064;49.636;12.164;2023-08-30T09:39:19;18.57;70.96
68248;SHT30;55064;49.636;12.164;2023-08-30T09:41:46;18.37;71.56
68248;SHT30;55064;49.636;12.164;2023-08-30T09:44:19;18.13;72.91
68248;SHT30;55064;49.636;12.164;2023-08-30T09:46:55;18.10;73.32
68248;SHT30;55064;49.636;12.164;2023-08-30T09:49:25;18.42;72.29
68248;SHT30;55064;49.636;12.164;2023-08-30T09:51:51;18.70;70.19
68248;SHT30;55064;49.636;12.164;2023-08-30T09:54:19;19.07;69.41
68248;SHT30;55064;49.636;12.164;2023-08-30T09:56:48;19.23;67.81
68248;SHT30;55064;49.636;12.164;2023-08-30T09:59:19;19.28;67.47
68248;SHT30;55064;49.636;12.164;2023-08-30T10:01:48;19.56;67.91
68248;SHT30;55064;49.636;12.164;2023-08-30T10:04:21;19.69;66.84
68248;SHT30;55064;49.636;12.164;2023-08-30T10:06:47;19.54;66.61
68248;SHT30;55064;49.636;12.164;2023-08-30T10:09:13;19.05;66.79
68248;SHT30;55064;49.636;12.164;2023-08-30T10:11:39;19.57;66.91
68248;SHT30;55064;49.636;12.164;2023-08-30T10:14:08;19.11;68.92
68248;SHT30;55064;49.636;12.164;2023-08-30T10:16:46;19.57;68.62
68248;SHT30;55064;49.636;12.164;2023-08-30T10:19:16;19.47;66.90
68248;SHT30;55064;49.636;12.164;2023-08-30T10:21:47;19.80;63.87
68248;SHT30;55064;49.636;12.164;2023-08-30T10:24:16;19.92;64.43
68248;SHT30;55064;49.636;12.164;2023-08-30T10:26:46;20.25;65.16
68248;SHT30;55064;49.636;12.164;2023-08-30T10:29:14;20.05;61.60
68248;SHT30;55064;49.636;12.164;2023-08-30T10:31:43;20.62;60.02
68248;SHT30;55064;49.636;12.164;2023-08-30T10:34:16;21.10;57.72
68248;SHT30;55064;49.636;12.164;2023-08-30T10:36:43;21.38;57.74
68248;SHT30;55064;49.636;12.164;2023-08-30T10:39:13;20.67;60.14
68248;SHT30;55064;49.636;12.164;2023-08-30T10:41:54;20.36;61.18
68248;SHT30;55064;49.636;12.164;2023-08-30T10:44:22;20.07;61.84
68248;SHT30;55064;49.636;12.164;2023-08-30T10:46:52;19.73;63.53
68248;SHT30;55064;49.636;12.164;2023-08-30T10:49:18;19.56;64.48
68248;SHT30;55064;49.636;12.164;2023-08-30T10:51:44;19.47;65.57
68248;SHT30;55064;49.636;12.164;2023-08-30T10:54:16;19.45;65.96
68248;SHT30;55064;49.636;12.164;2023-08-30T10:56:54;19.47;66.96
68248;SHT30;55064;49.636;12.164;2023-08-30T10:59:22;19.37;66.93
68248;SHT30;55064;49.636;12.164;2023-08-30T11:01:52;19.15;68.02
68248;SHT30;55064;49.636;12.164;2023-08-30T11:04:19;19.04;69.00
68248;SHT30;55064;49.636;12.164;2023-08-30T11:06:51;18.91;68.06
68248;SHT30;55064;49.636;12.164;2023-08-30T11:09:18;18.91;67.82
68248;SHT30;55064;49.636;12.164;2023-08-30T11:11:50;18.84;66.59
68248;SHT30;55064;49.636;12.164;2023-08-30T11:14:17;18.91;66.78
68248;SHT30;55064;49.636;12.164;2023-08-30T11:16:43;19.05;66.58
68248;SHT30;55064;49.636;12.164;2023-08-30T11:19:09;19.20;67.53
68248;SHT30;55064;49.636;12.164;2023-08-30T11:21:40;19.26;66.83
68248;SHT30;55064;49.636;12.164;2023-08-30T11:24:07;18.97;65.84
68248;SHT30;55064;49.636;12.164;2023-08-30T11:26:33;19.09;65.46
68248;SHT30;55064;49.636;12.164;2023-08-30T11:29:08;19.19;66.78
68248;SHT30;55064;49.636;12.164;2023-08-30T11:31:34;19.26;67.22
68248;SHT30;55064;49.636;12.164;2023-08-30T11:34:00;19.26;66.29
68248;SHT30;55064;49.636;12.164;2023-08-30T11:36:28;19.22;66.25
68248;SHT30;55064;49.636;12.164;2023-08-30T11:38:57;19.23;66.78
68248;SHT30;55064;49.636;12.164;2023-08-30T11:41:27;19.18;65.55
68248;SHT30;55064;49.636;12.164;2023-08-30T11:43:53;19.25;65.48
68248;SHT30;55064;49.636;12.164;2023-08-30T11:46:20;19.32;66.26
68248;SHT30;55064;49.636;12.164;2023-08-30T11:48:49;19.04;65.39
68248;SHT30;55064;49.636;12.164;2023-08-30T11:51:14;18.87;65.33
68248;SHT30;55064;49.636;12.164;2023-08-30T11:53:45;18.88;65.38
68248;SHT30;55064;49.636;12.164;2023-08-30T11:56:11;19.07;65.38
68248;SHT30;55064;49.636;12.164;2023-08-30T11:58:38;19.56;64.56
68248;SHT30;55064;49.636;12.164;2023-08-30T12:01:04;19.69;62.86
68248;SHT30;55064;49.636;12.164;2023-08-30T12:03:30;19.46;61.74
68248;SHT30;55064;49.636;12.164;2023-08-30T12:05:56;19.42;61.90
68248;SHT30;55064;49.636;12.164;2023-08-30T12:08:31;19.49;62.66
68248;SHT30;55064;49.636;12.164;2023-08-30T12:10:57;19.53;64.36
68248;SHT30;55064;49.636;12.164;2023-08-30T12:13:31;19.40;66.28
68248;SHT30;55064;49.636;12.164;2023-08-30T12:15:57;19.33;65.79
68248;SHT30;55064;49.636;12.164;2023-08-30T12:18:24;19.32;66.25
68248;SHT30;55064;49.636;12.164;2023-08-30T12:20:57;19.33;65.70
68248;SHT30;55064;49.636;12.164;2023-08-30T12:23:23;19.33;66.04
68248;SHT30;55064;49.636;12.164;2023-08-30T12:26:00;19.20;66.71
68248;SHT30;55064;49.636;12.164;2023-08-30T12:28:28;19.19;67.15
68248;SHT30;55064;49.636;12.164;2023-08-30T12:30:54;18.97;65.08
68248;SHT30;55064;49.636;12.164;2023-08-30T12:33:20;18.94;67.69
68248;SHT30;55064;49.636;12.164;2023-08-30T12:35:45;18.99;68.79
68248;SHT30;55064;49.636;12.164;2023-08-30T12:38:11;19.07;69.66
68248;SHT30;55064;49.636;12.164;2023-08-30T12:40:52;18.91;70.00
68248;SHT30;55064;49.636;12.164;2023-08-30T12:43:19;18.84;70.85
68248;SHT30;55064;49.636;12.164;2023-08-30T12:45:45;18.95;71.56
68248;SHT30;55064;49.636;12.164;2023-08-30T12:48:12;19.02;70.71
68248;SHT30;55064;49.636;12.164;2023-08-30T12:50:44;18.97;69.78
68248;SHT30;55064;49.636;12.164;2023-08-30T12:53:10;19.01;70.97
68248;SHT30;55064;49.636;12.164;2023-08-30T12:55:36;19.12;69.02
68248;SHT30;55064;49.636;12.164;2023-08-30T12:58:04;19.35;69.15
68248;SHT30;55064;49.636;12.164;2023-08-30T13:00:29;19.29;68.76
68248;SHT30;55064;49.636;12.164;2023-08-30T13:02:55;19.35;68.76
68248;SHT30;55064;49.636;12.164;2023-08-30T13:05:21;19.62;64.68
68248;SHT30;55064;49.636;12.164;2023-08-30T13:07:47;19.74;63.74
68248;SHT30;55064;49.636;12.164;2023-08-30T13:10:16;19.73;62.06
68248;SHT30;55064;49.636;12.164;2023-08-30T13:12:42;19.88;63.34
68248;SHT30;55064;49.636;12.164;2023-08-30T13:15:08;19.87;60.37
68248;SHT30;55064;49.636;12.164;2023-08-30T13:17:33;19.85;59.65
68248;SHT30;55064;49.636;12.164;2023-08-30T13:20:01;19.85;60.12
68248;SHT30;55064;49.636;12.164;2023-08-30T13:22:27;19.83;60.10
68248;SHT30;55064;49.636;12.164;2023-08-30T13:24:53;19.70;61.27
68248;SHT30;55064;49.636;12.164;2023-08-30T13:27:19;19.71;62.44
68248;SHT30;55064;49.636;12.164;2023-08-30T13:29:44;19.70;62.78
68248;SHT30;55064;49.636;12.164;2023-08-30T13:32:10;19.66;62.43
68248;SHT30;55064;49.636;12.164;2023-08-30T13:34:36;19.57;63.43
68248;SHT30;55064;49.636;12.164;2023-08-30T13:37:01;19.54;63.68
68248;SHT30;55064;49.636;12.164;2023-08-30T13:39:29;19.57;63.84
68248;SHT30;55064;49.636;12.164;2023-08-30T13:41:54;19.59;64.17
68248;SHT30;55064;49.636;12.164;2023-08-30T13:44:20;19.73;65.06
68248;SHT30;55064;49.636;12.164;2023-08-30T13:46:46;19.73;63.81
68248;SHT30;55064;49.636;12.164;2023-08-30T13:49:19;19.67;63.92
68248;SHT30;55064;49.636;12.164;2023-08-30T13:51:45;19.69;63.86
68248;SHT30;55064;49.636;12.164;2023-08-30T13:54:13;19.63;63.55
68248;SHT30;55064;49.636;12.164;2023-08-30T13:56:38;19.50;64.81
68248;SHT30;55064;49.636;12.164;2023-08-30T13:59:03;19.50;65.03
68248;SHT30;55064;49.636;12.164;2023-08-30T14:01:31;19.37;63.76
68248;SHT30;55064;49.636;12.164;2023-08-30T14:03:58;19.39;64.31
68248;SHT30;55064;49.636;12.164;2023-08-30T14:06:23;19.30;65.03
68248;SHT30;55064;49.636;12.164;2023-08-30T14:08:49;19.26;65.10
68248;SHT30;55064;49.636;12.164;2023-08-30T14:11:14;19.33;64.88
68248;SHT30;55064;49.636;12.164;2023-08-30T14:13:40;19.45;64.95
68248;SHT30;55064;49.636;12.164;2023-08-30T14:16:05;19.36;63.78
68248;SHT30;55064;49.636;12.164;2023-08-30T14:18:31;19.39;64.56
68248;SHT30;55064;49.636;12.164;2023-08-30T14:20:58;19.33;66.02
68248;SHT30;55064;49.636;12.164;2023-08-30T14:23:24;19.36;65.61
68248;SHT30;55064;49.636;12.164;2023-08-30T14:26:03;19.36;66.48
68248;SHT30;55064;49.636;12.164;2023-08-30T14:28:35;19.53;65.99
68248;SHT30;55064;49.636;12.164;2023-08-30T14:31:03;19.56;66.44
68248;SHT30;55064;49.636;12.164;2023-08-30T14:33:31;19.66;66.73
68248;SHT30;55064;49.636;12.164;2023-08-30T14:35:57;19.43;65.05
68248;SHT30;55064;49.636;12.164;2023-08-30T14:38:23;19.45;65.83
68248;SHT30;55064;49.636;12.164;2023-08-30T14:40:59;19.46;66.51
68248;SHT30;55064;49.636;12.164;2023-08-30T14:43:25;19.66;66.34
68248;SHT30;55064;49.636;12.164;2023-08-30T14:45:50;19.87;65.41
68248;SHT30;55064;49.636;12.164;2023-08-30T14:48:16;20.11;65.45
68248;SHT30;55064;49.636;12.164;2023-08-30T14:50:41;19.95;65.33
68248;SHT30;55064;49.636;12.164;2023-08-30T14:53:06;19.87;65.17
68248;SHT30;55064;49.636;12.164;2023-08-30T14:55:32;19.66;65.04
68248;SHT30;55064;49.636;12.164;2023-08-30T14:57:59;19.73;65.52
68248;SHT30;55064;49.636;12.164;2023-08-30T15:00:24;19.71;65.22
68248;SHT30;55064;49.636;12.164;2023-08-30T15:02:50;19.75;65.23
68248;SHT30;55064;49.636;12.164;2023-08-30T15:05:15;19.71;65.45
68248;SHT30;55064;49.636;12.164;2023-08-30T15:07:41;19.70;66.07
68248;SHT30;55064;49.636;12.164;2023-08-30T15:10:06;19.70;66.17
68248;SHT30;55064;49.636;12.164;2023-08-30T15:12:32;19.52;65.56
68248;SHT30;55064;49.636;12.164;2023-08-30T15:14:57;19.57;65.87
68248;SHT30;55064;49.636;12.164;2023-08-30T15:17:23;19.66;66.03
68248;SHT30;55064;49.636;12.164;2023-08-30T15:19:48;19.70;66.33
68248;SHT30;55064;49.636;12.164;2023-08-30T15:22:14;19.88;65.49
68248;SHT30;55064;49.636;12.164;2023-08-30T15:24:39;20.11;65.08
68248;SHT30;55064;49.636;12.164;2023-08-30T15:27:04;20.14;65.75